13:43
Airports
History
Links
Donate
Help keep this website running!
PayPal
Bitcoin
This page is community maintained. The information is intended for PC simulator navigation or reference.
Always use approved charts for navigation.
LIRZ
PERUGIAEdited 07-Mar-2012
PERUGIA (LIRZ)
Assisi, Umbria, Italy (6081)
(C)
Lat/Lng:43° 5' 45.27" N / 12° 30' 47.6" E
43.095907 / 12.513221
Elevation:693'ft / 211mMSL
ID / ICAO:LIRZ
Runways:1
Longest:01-19
Asphalt 1,690m / 5,544ft
Controlled:Yes
Beacon:White-Green
(Edited 2012-03-07) [ Sign in to Edit ]
METAR12:50 GMT 2017-11-20
Altimeter: 30.12
Visibility: 6.2 statute miles
Wind: 2 knots (from VRB°)
Temp: 12°c / 54°f
Humidity: 50.3%

METAR: LIRZ 201250Z VRB02KT CAVOK 12/02 Q1020

(Powered by phpweather)
Airport Radio Frequencies
Tower: 118.1
Nearby VORs <50NM
Nearby NDBs
Runway 01 / 19
Dimensions:1689.8 x 45.1m 5544' x 148'ft
Surface:Asphalt
Edge Lights:High intensity
Runway 01 [A]Runway 19 [B]
Heading:014°TH 194°TH
Lat:
Lng:
43° 5' 18.64"N
12° 30' 38.31"E
43° 6' 11.89"N
12° 30' 56.88"E
ALS:SALS
User Notes and Comments
43° 5' 45.27" N / 12° 30' 47.6" E
Distance To
Airport ID:
Nearby Airports
4 Foligno 15.1 NM
LIAF SE 138°
4 Arezzo 41.7 NM
LIQB ( WX ) NW 306°
4 Rieti 49.3 NM
LIQN ( WX ) SSE 159°
(C) VITERBO 51.0 NM
LIRV ( WX ) SSW 206°
(C) FALCONARA 55.8 NM
LIPY ( WX ) NE 49°
4 Fano 56.6 NM
LIDF NNE 27°
(C) Aeroporto dei Parchi 63.9 NM
LIAP SE 140°
VFR Chart
Flight Planning at SkyVector.com